Nearby METAR Reports

 

KADS - Dallas/Addison, Texas, USA
Distance from station: SSE 13mi, 21km
Updated: Sun, 12-09-2018 2:47pm CST
Clear
Clear
 Wind from NW
Wind: NW 9 mph , 15 km/h
Temperature: 48°F , 9°C
Wind Chill: 44°F , 7°C
Dew Point: 36°F , 2°C
Humidity: 62%
Barometer: 30.31 inHg , 1026.4 hPa
Clouds: Clear
Visibility: 10 miles , 16 km
2018/12/09 20:47 KADS 092047Z 31008KT 10SM SKC 09/02 A3031
KTKI - Mckinney, Texas, USA
Distance from station: E 17mi, 27km
Updated: Sun, 12-09-2018 2:53pm CST
Clear
Clear
 Wind from NNW
Wind: NNW 10 mph , 17 km/h
Temperature: 50°F , 10°C
Wind Chill: 46°F , 8°C
Dew Point: 34°F , 1°C
Humidity: 54%
Barometer: 30.29 inHg , 1025.7 hPa
Clouds: Clear
Visibility: 10 miles , 16 km
2018/12/09 20:53 KTKI 092053Z 34009KT 10SM CLR 10/01 A3029 RMK AO2 SLP267 T01000011 56016 $
 
KDFW - Dallas/Ft Worth, Texas, USA
Distance from station: SSW 19mi, 30km
Updated: Sun, 12-09-2018 2:53pm CST
Few Clouds
Few Clouds
 Wind from N
Wind: N 13 mph , 20 km/h
Temperature: 50°F , 10°C
Wind Chill: 45°F , 7°C
Dew Point: 34°F , 1°C
Humidity: 54%
Barometer: 30.28 inHg , 1025.4 hPa
Clouds: Few Clouds
Visibility: 10 miles , 16 km
Cloud details: Few Clouds 4300 ft
2018/12/09 20:53 KDFW 092053Z 36011KT 10SM FEW043 10/01 A3028 RMK AO2 SLP254 T01000011 56016 $
KDTO - Denton, Texas, USA
Distance from station: W 19mi, 31km
Updated: Sun, 12-09-2018 2:53pm CST
Clear
Clear
 Wind from N
Wind: N 13 mph , 20 km/h
Temperature: 50°F , 10°C
Wind Chill: 45°F , 7°C
Dew Point: 36°F , 2°C
Humidity: 58%
Barometer: 30.30 inHg , 1026.1 hPa
Clouds: Clear
Visibility: 10 miles , 16 km
2018/12/09 20:53 KDTO 092053Z 35011KT 10SM CLR 10/02 A3030 RMK AO2 SLP261 T01000017 56019
 
KDAL - Dallas/Love Fld, Texas, USA
Distance from station: S 20mi, 33km
Updated: Sun, 12-09-2018 2:53pm CST
Few Clouds
Few Clouds
 Wind from NW
Wind: NW 10 mph , 17 km/h
Temperature: 52°F , 11°C
Dew Point: 36°F , 2°C
Humidity: 54%
Barometer: 30.29 inHg , 1025.7 hPa
Clouds: Few Clouds
Visibility: 10 miles , 16 km
Cloud details: Few Clouds 3500 ft
Few Clouds 6000 ft
Few Clouds 25000 ft
2018/12/09 20:53 KDAL 092053Z 32009KT 10SM FEW035 FEW060 FEW250 11/02 A3029 RMK AO2 SLP258 T01060017 56017 $